| time (UTC) | temp F | wind direction | speed knots | gust knots | rain 1hr in | rain 24hr in | rain mn in | humidity % | barometer mb |
| 20260509184547 | 52 | 103 | 1.7 | 3.5 | 0.02 | 0.36 | 0.36 | 78 | 1009.6 |
| 20260509183051 | 51 | 115 | 0.9 | 8.7 | 0.02 | 0.36 | 0.36 | 77 | 1009.6 |
| 20260509181550 | 52 | 69 | 2.6 | 7.0 | 0.00 | 0.34 | 0.34 | 78 | 1009.6 |
| 20260509180055 | 51 | 118 | 3.5 | 7.8 | 0.01 | 0.34 | 0.34 | 78 | 1009.6 |
| 20260509174547 | 51 | 0 | 2.6 | 10.4 | 0.02 | 0.34 | 0.34 | 78 | 1009.6 |
| 20260509173050 | 51 | 97 | 2.6 | 7.0 | 0.03 | 0.34 | 0.34 | 78 | 1009.5 |
| 20260509171548 | 51 | 265 | 0.9 | 3.5 | 0.03 | 0.34 | 0.34 | 78 | 1009.4 |
| 20260509170059 | 51 | 0 | 0.0 | 1.7 | 0.03 | 0.33 | 0.33 | 79 | 1009.5 |
| 20260509164556 | 51 | 0 | 0.9 | 2.6 | 0.02 | 0.33 | 0.32 | 79 | 1009.6 |
| 20260509163054 | 50 | 15 | 0.0 | 3.5 | 0.01 | 0.32 | 0.31 | 79 | 1009.7 |
| 20260509161559 | 50 | 84 | 0.0 | 1.7 | 0.02 | 0.32 | 0.31 | 79 | 1009.8 |
| 20260509160050 | 50 | 0 | 0.0 | 0.0 | 0.01 | 0.31 | 0.30 | 79 | 1009.9 |
| 20260509154548 | 50 | 0 | 0.0 | 2.6 | 0.02 | 0.46 | 0.30 | 79 | 1010.0 |
| 20260509153057 | 51 | 65 | 0.0 | 1.7 | 0.02 | 0.46 | 0.30 | 79 | 1010.0 |
| 20260509151552 | 50 | 94 | 0.0 | 2.6 | 0.02 | 0.45 | 0.29 | 79 | 1010.0 |
| 20260509150051 | 50 | 74 | 0.0 | 3.5 | 0.03 | 0.45 | 0.29 | 79 | 1010.1 |
| 20260509144549 | 50 | 87 | 0.0 | 3.5 | 0.03 | 0.44 | 0.28 | 79 | 1010.3 |
| 20260509143047 | 50 | 0 | 0.0 | 0.0 | 0.04 | 0.44 | 0.28 | 79 | 1010.4 |
| 20260509141615 | 50 | 0 | 0.0 | 0.0 | 0.04 | 0.43 | 0.27 | 79 | 1010.6 |
| 20260509140100 | 50 | 0 | 0.0 | 0.0 | 0.03 | 0.42 | 0.26 | 79 | 1010.6 |
| 20260509134623 | 49 | 0 | 0.0 | 0.0 | 0.03 | 0.41 | 0.25 | 79 | 1010.6 |
| 20260509133055 | 49 | 0 | 0.0 | 0.0 | 0.02 | 0.40 | 0.24 | 79 | 1010.4 |
| 20260509131554 | 49 | 0 | 0.0 | 0.0 | 0.02 | 0.39 | 0.23 | 79 | 1010.3 |
| 20260509130054 | 48 | 0 | 0.0 | 0.9 | 0.02 | 0.39 | 0.23 | 79 | 1010.2 |
| 20260509124552 | 48 | 0 | 0.0 | 1.7 | 0.02 | 0.38 | 0.22 | 79 | 1010.4 |
| 20260509123051 | 48 | 0 | 0.0 | 0.0 | 0.02 | 0.38 | 0.22 | 79 | 1010.6 |
| 20260509121551 | 47 | 0 | 0.0 | 0.0 | 0.01 | 0.37 | 0.21 | 79 | 1010.9 |
| 20260509120050 | 47 | 0 | 0.0 | 0.0 | 0.01 | 0.37 | 0.21 | 79 | 1011.0 |
| 20260509114547 | 47 | 0 | 0.0 | 0.0 | 0.00 | 0.36 | 0.20 | 79 | 1010.9 |
| 20260509113053 | 47 | 0 | 0.0 | 0.0 | 0.00 | 0.36 | 0.20 | 79 | 1010.8 |
| 20260509111549 | 47 | 0 | 0.0 | 0.0 | 0.00 | 0.36 | 0.20 | 79 | 1010.9 |
| 20260509110050 | 46 | 0 | 0.0 | 0.0 | 0.01 | 0.36 | 0.20 | 79 | 1011.1 |
| 20260509104547 | 46 | 0 | 0.0 | 0.0 | 0.02 | 0.36 | 0.20 | 79 | 1010.8 |
| 20260509103054 | 46 | 0 | 0.0 | 0.0 | 0.02 | 0.36 | 0.20 | 79 | 1010.9 |
| 20260509101554 | 46 | 0 | 0.0 | 0.0 | 0.04 | 0.36 | 0.20 | 79 | 1011.1 |
| 20260509100051 | 46 | 0 | 0.0 | 0.0 | 0.06 | 0.35 | 0.19 | 79 | 1011.0 |
| 20260509094551 | 46 | 0 | 0.0 | 1.7 | 0.05 | 0.34 | 0.18 | 79 | 1010.8 |
| 20260509093058 | 46 | 0 | 0.0 | 1.7 | 0.05 | 0.34 | 0.18 | 79 | 1010.9 |
| 20260509091553 | 46 | 0 | 0.0 | 0.0 | 0.03 | 0.32 | 0.16 | 79 | 1011.2 |
| 20260509090051 | 46 | 0 | 0.0 | 0.0 | 0.00 | 0.29 | 0.13 | 79 | 1010.9 |
| 20260509084554 | 46 | 0 | 0.0 | 0.0 | 0.01 | 0.29 | 0.13 | 79 | 1011.0 |
| 20260509083050 | 46 | 0 | 0.0 | 0.0 | 0.02 | 0.29 | 0.13 | 79 | 1011.1 |
| 20260509081550 | 46 | 0 | 0.0 | 0.0 | 0.02 | 0.29 | 0.13 | 79 | 1011.1 |
| 20260509080052 | 46 | 0 | 0.0 | 0.0 | 0.03 | 0.29 | 0.13 | 79 | 1011.4 |
| 20260509074602 | 46 | 0 | 0.0 | 0.0 | 0.03 | 0.28 | 0.12 | 79 | 1011.7 |
| 20260509073058 | 46 | 0 | 0.0 | 0.0 | 0.04 | 0.27 | 0.11 | 79 | 1011.7 |
| 20260509071604 | 46 | 0 | 0.0 | 0.0 | 0.05 | 0.27 | 0.11 | 79 | 1011.7 |
| 20260509070059 | 46 | 0 | 0.0 | 0.0 | 0.05 | 0.26 | 0.10 | 79 | 1011.9 |
| 20260509064559 | 45 | 0 | 0.0 | 0.0 | 0.05 | 0.26 | 0.09 | 78 | 1012.0 |
| 20260509063047 | 46 | 0 | 0.0 | 0.0 | 0.03 | 0.24 | 0.07 | 78 | 1012.0 |
| 20260509061617 | 46 | 0 | 0.0 | 0.0 | 0.03 | 0.23 | 0.06 | 78 | 1012.0 |
| 20260509060050 | 46 | 0 | 0.0 | 0.0 | 0.03 | 0.22 | 0.05 | 78 | 1012.0 |
| 20260509054554 | 46 | 0 | 0.0 | 0.0 | 0.02 | 0.21 | 0.04 | 78 | 1012.0 |
| 20260509053051 | 45 | 0 | 0.0 | 0.0 | 0.04 | 0.21 | 0.04 | 77 | 1012.1 |
| 20260509051551 | 45 | 0 | 0.0 | 0.0 | 0.03 | 0.20 | 0.03 | 76 | 1012.1 |
| 20260509050106 | 45 | 0 | 0.0 | 0.0 | 0.02 | 0.19 | 0.02 | 74 | 1012.0 |
| 20260509044550 | 46 | 0 | 0.0 | 0.0 | 0.02 | 0.24 | 0.02 | 74 | 1012.0 |
| 20260509043055 | 46 | 0 | 0.0 | 0.9 | 0.00 | 0.22 | 0.00 | 73 | 1011.7 |
| 20260509041548 | 46 | 0 | 0.0 | 0.9 | 0.00 | 0.22 | 0.00 | 73 | 1011.9 |
| 20260509040052 | 46 | 0 | 0.0 | 0.9 | 0.00 | 0.22 | 0.00 | 73 | 1012.3 |
| 20260509034555 | 45 | 0 | 0.0 | 0.0 | 0.00 | 0.43 | 0.22 | 73 | 1012.3 |
| 20260509033056 | 44 | 0 | 0.0 | 0.9 | 0.00 | 0.43 | 0.22 | 72 | 1012.3 |
| 20260509031550 | 44 | 0 | 0.0 | 0.9 | 0.00 | 0.43 | 0.22 | 71 | 1012.2 |
| 20260509030053 | 44 | 0 | 0.0 | 0.0 | 0.00 | 0.43 | 0.22 | 69 | 1012.3 |
| 20260509024549 | 45 | 0 | 0.0 | 0.0 | 0.00 | 0.43 | 0.22 | 69 | 1012.2 |
| 20260509023048 | 46 | 0 | 0.0 | 0.0 | 0.00 | 0.43 | 0.22 | 69 | 1012.3 |
| 20260509021552 | 47 | 0 | 0.0 | 0.0 | 0.00 | 0.43 | 0.22 | 69 | 1012.1 |
| 20260509020051 | 48 | 0 | 0.0 | 0.9 | 0.00 | 0.43 | 0.22 | 67 | 1012.1 |
| 20260509014549 | 48 | 0 | 0.0 | 1.7 | 0.00 | 0.43 | 0.22 | 67 | 1012.1 |
| 20260509013054 | 49 | 0 | 0.0 | 5.2 | 0.00 | 0.43 | 0.22 | 66 | 1012.0 |
| 20260509011556 | 49 | 0 | 0.9 | 2.6 | 0.00 | 0.43 | 0.22 | 66 | 1011.9 |
| 20260509010050 | 48 | 0 | 0.0 | 2.6 | 0.00 | 0.43 | 0.22 | 68 | 1011.9 |
| 20260509004603 | 48 | 0 | 0.0 | 1.7 | 0.00 | 0.43 | 0.22 | 67 | 1011.5 |
| 20260509003051 | 49 | 60 | 0.0 | 0.9 | 0.00 | 0.43 | 0.22 | 66 | 1011.5 |
| 20260509001552 | 50 | 0 | 0.0 | 4.3 | 0.00 | 0.43 | 0.22 | 63 | 1011.3 |
| 20260509000049 | 52 | 0 | 0.0 | 1.7 | 0.00 | 0.43 | 0.22 | 58 | 1011.1 |
| 20260508234550 | 53 | 0 | 0.0 | 0.0 | 0.00 | 0.43 | 0.22 | 58 | 1011.0 |
| 20260508233049 | 53 | 83 | 0.9 | 3.5 | 0.00 | 0.43 | 0.22 | 58 | 1011.0 |
| 20260508231555 | 54 | 0 | 0.0 | 2.6 | 0.00 | 0.43 | 0.22 | 55 | 1010.9 |
| 20260508230051 | 55 | 331 | 1.7 | 2.6 | 0.00 | 0.43 | 0.22 | 49 | 1010.7 |
| 20260508224552 | 55 | 40 | 0.0 | 2.6 | 0.00 | 0.43 | 0.22 | 49 | 1010.8 |
| 20260508223053 | 55 | 27 | 0.9 | 2.6 | 0.00 | 0.43 | 0.22 | 49 | 1010.8 |
| 20260508221551 | 54 | 0 | 0.9 | 2.6 | 0.00 | 0.43 | 0.22 | 52 | 1010.9 |
| 20260508220050 | 54 | 96 | 0.0 | 4.3 | 0.00 | 0.43 | 0.22 | 51 | 1011.0 |
| 20260508214600 | 56 | 34 | 0.0 | 5.2 | 0.00 | 0.43 | 0.22 | 52 | 1010.9 |
| 20260508213049 | 55 | 96 | 1.7 | 3.5 | 0.00 | 0.43 | 0.22 | 49 | 1010.9 |
| 20260508211550 | 56 | 93 | 0.0 | 4.3 | 0.00 | 0.43 | 0.22 | 50 | 1011.1 |
| 20260508210053 | 54 | 291 | 0.9 | 6.1 | 0.00 | 0.43 | 0.22 | 51 | 1011.3 |
| 20260508204550 | 52 | 0 | 0.0 | 0.0 | 0.00 | 0.43 | 0.22 | 57 | 1011.5 |
| 20260508203048 | 52 | 0 | 0.0 | 0.0 | 0.00 | 0.43 | 0.22 | 55 | 1011.5 |
| 20260508201547 | 53 | 84 | 0.0 | 3.5 | 0.00 | 0.43 | 0.22 | 52 | 1011.4 |
| 20260508200053 | 53 | 82 | 1.7 | 4.3 | 0.00 | 0.43 | 0.22 | 50 | 1011.6 |
| 20260508194549 | 54 | 75 | 2.6 | 6.1 | 0.00 | 0.43 | 0.22 | 49 | 1011.5 |
| 20260508193105 | 54 | 68 | 0.9 | 4.3 | 0.00 | 0.43 | 0.22 | 53 | 1011.7 |
| 20260508191559 | 53 | 77 | 1.7 | 7.0 | 0.00 | 0.43 | 0.22 | 52 | 1011.7 |
| 20260508190104 | 53 | 54 | 2.6 | 6.1 | 0.00 | 0.43 | 0.22 | 53 | 1011.9 |